Los Angeles, California
Current Conditions -  °F | °C
As of 5:47 AM on Friday 19 Dec 2014 (Local Time) from KCQT Reporting Station
Clear Clear  
Wind Chill: 10°   Ceiling: Unl
Heat Index: 10°   Visibility: 10mi
Dew Point:   Wind: 0mph
Humidity: 80%   Direction: NA
Pressure: 30.22"   Gusts: NA
Location:  34.05°N, 118.24°W
Report Text: KCQT 191347Z AUTO 00000KT 10SM CLR 10/07 A3022 RMK AO2 SLP233 T01000067
Loading
Personal Weather Stations






























Interactive Weather Map New forecast layout! Learn more

10-Day Weather Forecast

Advertisements
Track Severe Weather on mobile